Time;durP1;ratioP1;P1;durP2;ratioP2;P2;SDS_P1;SDS_P2;PMS_P1;PMS_P2;Temp;Humidity;BMP_temperature;BMP_pressure;BME280_temperature;BME280_humidity;BME280_pressure;Samples;Min_cycle;Max_cycle;Signal;HPM_P1;HPM_P2
2022/02/03 00:00:17;;;;;;;3.67;3.37;;;2.20;99.90;;;;;;5010069;28;20793;-79
2022/02/03 00:03:11;;;;;;;8.00;4.97;;;2.40;99.90;;;;;;4997658;28;20419;-79
2022/02/03 00:06:02;;;;;;;13.57;4.20;;;2.30;99.90;;;;;;5010877;28;20367;-79
2022/02/03 00:24:09;;;;;;;5.83;3.50;;;2.10;99.90;;;;;;5009707;28;20729;-79
2022/02/03 00:27:07;;;;;;;3.63;3.33;;;1.90;99.90;;;;;;5009441;28;20583;-79
2022/02/03 00:29:58;;;;;;;7.73;5.03;;;2.00;99.90;;;;;;5010543;28;20492;-79
2022/02/03 00:33:08;;;;;;;6.93;4.60;;;2.00;99.90;;;;;;5010053;28;20408;-79
2022/02/03 00:36:01;;;;;;;4.73;3.60;;;1.90;99.90;;;;;;5009361;28;20473;-80
2022/02/03 00:50:48;;;;;;;5.70;4.17;;;1.80;99.90;;;;;;5009792;28;20383;-79
2022/02/03 00:53:35;;;;;;;3.60;3.30;;;1.70;99.90;;;;;;5009278;28;20380;-79
2022/02/03 00:56:26;;;;;;;5.77;4.03;;;1.70;99.90;;;;;;5009525;28;20392;-79
2022/02/03 00:59:14;;;;;;;7.10;3.60;;;1.70;99.90;;;;;;5008855;28;20485;-79
2022/02/03 01:02:01;;;;;;;11.03;6.27;;;1.70;99.90;;;;;;5009128;28;20423;-79
2022/02/03 01:04:49;;;;;;;10.90;3.80;;;1.70;99.90;;;;;;5009270;28;20461;-79
2022/02/03 01:07:36;;;;;;;7.87;4.10;;;1.80;99.90;;;;;;5009740;28;20359;-79
2022/02/03 01:10:28;;;;;;;5.63;4.00;;;1.70;99.90;;;;;;5009648;28;20420;-79
2022/02/03 01:13:23;;;;;;;15.20;6.17;;;1.70;99.90;;;;;;5009575;28;20380;-79
2022/02/03 01:16:20;;;;;;;19.43;6.00;;;1.80;99.90;;;;;;5011113;28;20392;-80
2022/02/03 01:19:38;;;;;;;3.77;3.33;;;2.00;99.90;;;;;;5009858;28;20452;-80
2022/02/03 01:34:35;;;;;;;9.50;5.10;;;2.00;99.90;;;;;;5008821;28;20367;-79
2022/02/03 01:37:36;;;;;;;8.17;5.00;;;2.00;99.90;;;;;;5008880;28;20518;-80
2022/02/03 01:43:32;;;;;;;7.83;4.10;;;2.10;99.90;;;;;;5012418;28;20355;-79
2022/02/03 01:46:27;;;;;;;6.13;4.90;;;2.00;99.90;;;;;;5009014;28;20444;-79
2022/02/03 01:49:17;;;;;;;7.13;4.57;;;2.20;99.90;;;;;;5009150;28;20380;-79
2022/02/03 01:52:05;;;;;;;9.00;4.73;;;2.20;99.90;;;;;;5009611;28;20401;-80
2022/02/03 01:54:55;;;;;;;13.10;3.70;;;2.20;99.90;;;;;;5008906;28;20359;-79
2022/02/03 01:58:10;;;;;;;10.63;5.33;;;2.10;99.90;;;;;;4995094;28;20387;-79
2022/02/03 02:00:57;;;;;;;4.93;4.13;;;2.30;99.90;;;;;;5009759;28;20434;-79
2022/02/03 02:04:02;;;;;;;11.97;4.50;;;2.30;99.90;;;;;;5009383;28;20422;-80
2022/02/03 02:07:16;;;;;;;12.70;6.00;;;2.30;99.90;;;;;;5009212;28;20352;-79
2022/02/03 02:10:19;;;;;;;7.93;6.03;;;2.50;99.90;;;;;;5009699;28;20396;-79
2022/02/03 02:13:47;;;;;;;14.50;4.67;;;2.40;99.90;;;;;;5008850;28;20472;-79
2022/02/03 02:17:01;;;;;;;9.53;4.37;;;2.50;99.90;;;;;;5008776;28;20387;-79
2022/02/03 02:20:00;;;;;;;5.67;5.07;;;2.50;99.90;;;;;;5008526;28;20442;-79
2022/02/03 02:38:29;;;;;;;14.70;4.50;;;2.60;99.90;;;;;;5012688;28;20385;-80
2022/02/03 02:42:11;;;;;;;18.53;4.33;;;2.50;99.90;;;;;;5012530;28;20404;-79
2022/02/03 02:44:36;;;;;;;8.17;4.63;;;2.60;99.90;;;;;;5012567;28;20424;-79
2022/02/03 02:47:47;;;;;;;8.40;5.20;;;2.50;99.90;;;;;;5012286;28;20367;-79
2022/02/03 02:50:46;;;;;;;9.40;3.63;;;2.50;99.90;;;;;;5011955;28;20564;-79
2022/02/03 02:53:56;;;;;;;7.50;4.50;;;2.60;99.90;;;;;;4998764;28;20424;-79
2022/02/03 02:57:06;;;;;;;3.93;3.53;;;2.60;99.90;;;;;;5011892;28;20359;-79
2022/02/03 03:00:26;;;;;;;6.80;4.77;;;2.70;99.90;;;;;;5012179;28;20456;-79
2022/02/03 03:03:41;;;;;;;11.30;4.77;;;2.50;99.90;;;;;;5012390;28;20430;-79
2022/02/03 03:30:56;;;;;;;15.93;4.60;;;2.90;99.90;;;;;;5012217;28;20421;-79
2022/02/03 03:33:56;;;;;;;4.03;3.60;;;2.80;99.90;;;;;;5012291;28;20497;-79
2022/02/03 03:36:45;;;;;;;10.27;4.90;;;2.80;99.90;;;;;;5011713;28;20392;-79
2022/02/03 03:39:38;;;;;;;20.40;6.43;;;2.90;99.90;;;;;;5011857;28;20455;-79
2022/02/03 03:42:29;;;;;;;6.50;4.07;;;2.90;99.90;;;;;;5011572;28;20392;-79
2022/02/03 03:45:14;;;;;;;7.47;4.57;;;2.90;99.90;;;;;;5011203;28;20469;-79
2022/02/03 03:48:05;;;;;;;14.87;4.40;;;2.90;99.90;;;;;;5011288;28;20383;-79
2022/02/03 03:50:52;;;;;;;12.63;4.70;;;3.10;99.90;;;;;;5011228;28;20469;-80
2022/02/03 03:53:48;;;;;;;7.30;4.87;;;3.10;99.90;;;;;;5011309;28;20417;-79
2022/02/03 03:56:49;;;;;;;5.17;3.97;;;3.10;99.90;;;;;;5011523;28;20376;-80
2022/02/03 04:29:25;;;;;;;5.87;3.87;;;3.00;99.90;;;;;;5009817;28;20425;-79
2022/02/03 04:32:36;;;;;;;8.03;4.70;;;3.20;99.90;;;;;;5010619;28;20440;-79
2022/02/03 04:52:26;;;;;;;3.53;3.03;;;3.20;99.90;;;;;;5029964;28;20445;-79
2022/02/03 04:59:11;;;;;;;8.07;4.90;;;3.10;99.90;;;;;;5030021;28;20362;-79
2022/02/03 05:02:34;;;;;;;9.13;5.17;;;3.20;99.90;;;;;;5029738;28;20501;-80
2022/02/03 05:05:56;;;;;;;8.37;5.57;;;3.20;99.90;;;;;;5022894;28;20379;-80
2022/02/03 05:12:28;;;;;;;12.30;4.60;;;3.30;99.90;;;;;;5029960;28;20386;-80
2022/02/03 05:19:04;;;;;;;11.17;6.63;;;3.20;99.90;;;;;;5029754;28;20462;-80
2022/02/03 05:22:34;;;;;;;9.70;4.70;;;3.30;99.90;;;;;;5029055;28;20474;-79
2022/02/03 05:45:38;;;;;;;20.27;7.10;;;3.60;99.90;;;;;;5029093;28;20401;-79
2022/02/03 06:11:52;;;;;;;11.33;5.90;;;3.80;99.90;;;;;;5032546;28;20399;-79
2022/02/03 06:12:54;;;;;;;7.37;6.57;;;3.70;99.90;;;;;;5033831;28;20397;-79
2022/02/03 06:16:02;;;;;;;9.53;5.70;;;3.70;99.90;;;;;;5033316;28;20374;-79
2022/02/03 06:21:49;;;;;;;20.07;6.53;;;3.80;99.90;;;;;;5033517;28;20409;-79
2022/02/03 06:24:48;;;;;;;10.23;4.70;;;3.70;99.90;;;;;;5032996;28;20392;-79
2022/02/03 06:27:43;;;;;;;6.63;5.47;;;3.60;99.90;;;;;;5023245;28;20508;-79
2022/02/03 06:30:28;;;;;;;9.93;5.13;;;3.40;99.90;;;;;;4984109;28;20478;-81
2022/02/03 06:33:13;;;;;;;11.80;8.03;;;3.50;99.90;;;;;;4962013;28;20971;-81
2022/02/03 06:35:57;;;;;;;14.60;5.20;;;3.50;99.90;;;;;;4980763;28;20580;-81
2022/02/03 06:38:42;;;;;;;13.87;7.93;;;3.70;99.90;;;;;;4980731;28;20512;-81
2022/02/03 06:41:26;;;;;;;7.80;6.10;;;3.40;99.90;;;;;;4981118;28;20392;-81
2022/02/03 06:44:14;;;;;;;12.60;7.07;;;3.50;99.90;;;;;;4980731;28;20419;-81
2022/02/03 06:47:04;;;;;;;14.33;7.60;;;3.60;99.90;;;;;;4979423;28;20407;-80
2022/02/03 06:50:02;;;;;;;16.23;8.90;;;3.70;99.90;;;;;;4981249;28;20428;-80
2022/02/03 06:53:00;;;;;;;9.80;5.40;;;3.70;99.90;;;;;;4969508;28;20553;-81
2022/02/03 06:55:56;;;;;;;17.20;8.43;;;3.80;99.90;;;;;;4981267;28;20431;-81
2022/02/03 06:58:48;;;;;;;15.83;7.03;;;3.60;99.90;;;;;;4981827;28;20431;-81
2022/02/03 07:01:38;;;;;;;15.43;9.53;;;3.60;99.90;;;;;;4980552;28;20484;-81
2022/02/03 07:04:26;;;;;;;10.43;7.50;;;3.60;99.90;;;;;;5008661;28;20502;-82
2022/02/03 07:07:15;;;;;;;30.57;7.93;;;3.50;99.90;;;;;;5022450;28;20848;-81
2022/02/03 07:10:01;;;;;;;16.00;7.43;;;3.60;99.90;;;;;;5022621;28;20409;-81
2022/02/03 07:12:45;;;;;;;15.60;7.07;;;3.60;99.90;;;;;;5024292;28;20732;-82
2022/02/03 07:15:30;;;;;;;13.07;7.23;;;3.70;99.90;;;;;;5016288;28;20412;-82
2022/02/03 07:18:14;;;;;;;9.03;7.10;;;3.80;99.90;;;;;;5017114;28;20502;-81
2022/02/03 07:20:59;;;;;;;22.50;8.17;;;3.80;99.90;;;;;;5018628;28;20494;-81
2022/02/03 07:23:44;;;;;;;18.70;7.87;;;3.90;99.90;;;;;;5015955;28;20398;-81
2022/02/03 07:26:29;;;;;;;11.10;7.17;;;3.90;99.90;;;;;;5010414;28;20401;-81
2022/02/03 07:29:13;;;;;;;12.43;8.57;;;4.00;99.90;;;;;;5016816;28;20378;-81
2022/02/03 07:31:58;;;;;;;14.20;8.03;;;4.10;99.90;;;;;;5017484;28;20470;-81
2022/02/03 07:34:43;;;;;;;16.90;7.20;;;4.10;99.90;;;;;;5018992;28;20415;-80
2022/02/03 07:37:28;;;;;;;10.80;7.87;;;4.10;99.90;;;;;;4986844;28;20426;-81
2022/02/03 07:40:14;;;;;;;23.23;9.70;;;4.10;99.90;;;;;;5014766;28;20455;-81
2022/02/03 07:43:02;;;;;;;16.47;8.90;;;4.30;99.90;;;;;;5013433;28;20406;-82
2022/02/03 07:45:46;;;;;;;18.67;9.47;;;4.20;99.90;;;;;;5016654;28;20409;-81
2022/02/03 07:48:31;;;;;;;13.30;7.70;;;4.30;99.90;;;;;;5004667;28;20390;-81
2022/02/03 07:51:16;;;;;;;14.37;9.10;;;4.20;99.90;;;;;;5004533;28;20474;-81
2022/02/03 07:54:01;;;;;;;14.10;9.50;;;4.30;99.90;;;;;;5018286;28;20421;-81
2022/02/03 07:56:48;;;;;;;17.77;8.97;;;4.30;99.90;;;;;;5024490;28;20403;-81
2022/02/03 07:59:33;;;;;;;12.80;9.40;;;4.20;99.90;;;;;;5022543;28;20546;-81
2022/02/03 08:02:17;;;;;;;28.00;10.00;;;4.30;99.90;;;;;;5007170;28;20565;-81
2022/02/03 08:05:04;;;;;;;10.47;8.10;;;4.40;99.90;;;;;;4990254;28;20406;-81
2022/02/03 08:07:51;;;;;;;27.80;10.60;;;4.40;99.90;;;;;;5003069;28;20478;-81
2022/02/03 08:10:40;;;;;;;22.80;9.57;;;4.60;99.90;;;;;;5020148;28;20854;-81
2022/02/03 08:13:32;;;;;;;16.00;9.10;;;4.70;99.90;;;;;;5020962;28;20383;-81
2022/02/03 08:16:24;;;;;;;15.87;9.07;;;4.70;99.90;;;;;;5006549;28;20424;-81
2022/02/03 08:19:17;;;;;;;13.57;8.60;;;4.70;99.90;;;;;;4996125;28;20529;-81
2022/02/03 08:22:08;;;;;;;22.37;9.93;;;4.40;99.90;;;;;;5005515;28;20510;-81
2022/02/03 08:25:03;;;;;;;15.80;10.07;;;4.40;99.90;;;;;;5003635;28;20487;-81
2022/02/03 08:31:21;;;;;;;20.30;10.80;;;4.70;99.90;;;;;;4985113;28;20404;-81
2022/02/03 08:34:10;;;;;;;20.03;9.30;;;4.70;99.90;;;;;;4966809;28;20469;-82
2022/02/03 08:36:55;;;;;;;15.90;8.53;;;4.70;99.90;;;;;;4954528;28;20430;-81
2022/02/03 08:39:52;;;;;;;23.73;12.20;;;4.60;99.90;;;;;;4973125;28;20894;-81
2022/02/03 08:42:36;;;;;;;12.93;8.53;;;4.60;99.90;;;;;;4950271;28;20949;-80
2022/02/03 08:45:22;;;;;;;18.97;11.07;;;4.60;99.90;;;;;;4970531;28;20453;-80
2022/02/03 08:48:07;;;;;;;10.13;7.37;;;4.60;99.90;;;;;;4926667;28;20426;-80
2022/02/03 08:50:52;;;;;;;22.80;11.30;;;4.70;99.90;;;;;;4939858;28;20457;-80
2022/02/03 08:53:42;;;;;;;17.33;8.00;;;4.60;99.90;;;;;;4969902;28;20415;-80
2022/02/03 08:56:35;;;;;;;16.47;8.90;;;4.60;99.90;;;;;;4982981;28;20548;-80
2022/02/03 09:35:59;;;;;;;13.67;9.43;;;5.30;99.90;;;;;;4907686;29;20524;-81
2022/02/03 09:51:34;;;;;;;17.30;10.00;;;5.20;99.90;;;;;;4940887;28;20445;-79
2022/02/03 09:57:17;;;;;;;17.00;9.33;;;5.30;99.90;;;;;;5009873;28;20892;-81
2022/02/03 10:00:34;;;;;;;16.00;9.87;;;5.30;99.90;;;;;;5008320;28;20434;-81
2022/02/03 10:03:51;;;;;;;21.17;10.17;;;5.30;99.90;;;;;;5020464;28;20459;-81
2022/02/03 10:06:42;;;;;;;20.30;10.87;;;5.40;99.90;;;;;;4950841;28;20845;-81
2022/02/03 10:09:48;;;;;;;22.03;12.03;;;5.50;99.90;;;;;;4958515;28;20517;-81
2022/02/03 10:12:37;;;;;;;26.57;12.80;;;5.60;99.90;;;;;;4916443;29;20797;-81
2022/02/03 10:15:23;;;;;;;21.67;11.47;;;5.50;99.90;;;;;;4911882;29;20447;-80
2022/02/03 10:18:20;;;;;;;17.87;10.33;;;5.50;99.90;;;;;;4907833;29;20440;-82
2022/02/03 10:21:08;;;;;;;39.07;14.50;;;5.50;99.90;;;;;;4926753;29;20474;-82
2022/02/03 10:23:57;;;;;;;21.17;12.50;;;5.50;99.90;;;;;;4932119;29;20463;-82
2022/02/03 10:26:46;;;;;;;26.17;13.47;;;5.40;99.90;;;;;;4921607;29;20444;-82
2022/02/03 10:29:38;;;;;;;25.57;13.57;;;5.60;99.90;;;;;;4927429;29;20395;-80
2022/02/03 10:32:26;;;;;;;26.47;11.33;;;5.60;99.90;;;;;;4903542;29;20493;-81
2022/02/03 10:35:32;;;;;;;18.67;11.10;;;5.40;99.90;;;;;;4924077;29;21076;-81
2022/02/03 10:38:57;;;;;;;17.10;10.90;;;5.50;99.90;;;;;;4964163;29;20520;-82
2022/02/03 10:44:55;;;;;;;33.43;12.20;;;5.40;99.90;;;;;;5011317;28;20415;-81
2022/02/03 10:48:28;;;;;;;24.03;12.13;;;5.40;99.90;;;;;;5022251;28;20474;-82
2022/02/03 10:51:16;;;;;;;29.43;15.03;;;5.60;99.90;;;;;;5027375;28;20419;-81
2022/02/03 10:54:19;;;;;;;25.93;13.57;;;5.70;99.90;;;;;;5002932;28;20434;-81
2022/02/03 10:57:32;;;;;;;34.43;13.10;;;5.80;99.90;;;;;;5027131;28;20407;-81
2022/02/03 11:00:38;;;;;;;20.10;11.73;;;5.90;99.90;;;;;;5015318;28;20462;-81
2022/02/03 11:03:36;;;;;;;25.40;11.67;;;5.90;99.90;;;;;;5020749;28;20497;-81
2022/02/03 11:06:27;;;;;;;25.30;13.67;;;6.10;99.90;;;;;;5013184;28;20472;-82
2022/02/03 11:09:18;;;;;;;27.27;12.60;;;6.10;99.90;;;;;;4992982;28;20507;-81
2022/02/03 11:12:08;;;;;;;25.00;14.10;;;6.00;99.90;;;;;;5024288;28;20439;-82
2022/02/03 11:14:54;;;;;;;44.27;14.07;;;6.10;99.90;;;;;;5008688;28;20448;-82
2022/02/03 11:17:39;;;;;;;35.90;15.80;;;6.20;99.90;;;;;;5023776;28;20467;-82
2022/02/03 11:20:26;;;;;;;24.43;12.47;;;6.20;99.90;;;;;;5015449;28;20439;-82
2022/02/03 11:23:30;;;;;;;23.00;12.70;;;6.20;99.90;;;;;;5014518;28;20462;-82
2022/02/03 11:26:25;;;;;;;22.00;13.50;;;6.30;99.90;;;;;;5005278;28;20466;-82
2022/02/03 11:38:41;;;;;;;30.23;13.27;;;6.50;99.90;;;;;;5024051;28;20443;-82
2022/02/03 11:47:53;;;;;;;29.00;18.43;;;6.70;99.90;;;;;;5022785;28;21036;-82
2022/02/03 11:54:10;;;;;;;27.60;14.00;;;6.70;99.90;;;;;;5025322;28;20390;-81
2022/02/03 12:03:29;;;;;;;26.03;12.30;;;6.70;99.90;;;;;;5013050;28;20445;-81
2022/02/03 12:07:23;;;;;;;24.83;14.13;;;6.80;99.90;;;;;;5004166;28;20401;-80
2022/02/03 12:13:01;;;;;;;18.07;11.93;;;7.00;99.90;;;;;;5007000;28;20493;-79
2022/02/03 12:16:10;;;;;;;29.43;12.10;;;7.10;99.90;;;;;;4998642;28;20475;-80
2022/02/03 12:19:10;;;;;;;21.70;13.63;;;7.00;99.90;;;;;;5001629;28;20622;-80
2022/02/03 12:22:17;;;;;;;25.57;12.77;;;7.00;99.90;;;;;;5021355;28;20454;-79
2022/02/03 12:28:18;;;;;;;24.23;13.23;;;7.20;99.90;;;;;;5010377;28;20450;-81
2022/02/03 12:31:26;;;;;;;30.87;11.87;;;7.30;99.90;;;;;;5004570;28;20472;-81
2022/02/03 12:37:15;;;;;;;28.43;12.87;;;7.50;99.90;;;;;;5007951;28;20478;-81
2022/02/03 12:40:03;;;;;;;21.90;10.90;;;7.50;99.90;;;;;;5022245;28;21026;-81
2022/02/03 12:42:53;;;;;;;20.07;10.93;;;7.70;99.90;;;;;;5032690;28;20675;-81
2022/02/03 12:45:39;;;;;;;19.33;10.87;;;7.60;99.90;;;;;;5021741;28;20528;-82
2022/02/03 12:48:28;;;;;;;19.57;12.20;;;7.60;99.90;;;;;;5032682;28;20447;-83
2022/02/03 12:51:12;;;;;;;17.43;11.53;;;7.70;99.90;;;;;;5000474;28;20468;-82
2022/02/03 12:54:07;;;;;;;25.20;9.77;;;7.70;99.90;;;;;;5017819;28;20963;-83
2022/02/03 12:57:01;;;;;;;16.50;10.17;;;7.70;99.90;;;;;;5014797;28;20453;-83
2022/02/03 12:59:48;;;;;;;16.33;10.63;;;7.80;99.90;;;;;;5015401;28;20459;-83
2022/02/03 13:02:33;;;;;;;15.60;8.93;;;8.00;99.90;;;;;;4985574;28;20471;-83
2022/02/03 13:05:21;;;;;;;12.13;9.13;;;8.00;99.90;;;;;;5018763;28;20402;-83
2022/02/03 13:08:09;;;;;;;14.97;9.13;;;7.90;99.90;;;;;;5019349;28;20516;-83
2022/02/03 13:11:02;;;;;;;18.90;10.03;;;8.00;99.90;;;;;;5010340;28;20455;-82
2022/02/03 13:14:31;;;;;;;15.40;11.23;;;7.90;99.90;;;;;;5004367;28;20439;-81
2022/02/03 13:17:09;;;;;;;21.03;9.63;;;7.90;99.90;;;;;;5008026;28;20446;-82
2022/02/03 13:20:12;;;;;;;12.87;9.93;;;7.90;99.90;;;;;;5019556;28;20459;-82
2022/02/03 13:23:08;;;;;;;14.20;10.40;;;7.90;99.90;;;;;;5015281;28;20483;-83
2022/02/03 13:26:04;;;;;;;14.87;11.20;;;7.90;99.90;;;;;;5008972;28;20936;-82
2022/02/03 13:29:02;;;;;;;14.30;9.30;;;7.90;99.90;;;;;;5018599;28;20906;-83
2022/02/03 13:32:15;;;;;;;11.27;7.27;;;7.90;99.90;;;;;;4974420;28;20437;-82
2022/02/03 13:35:28;;;;;;;19.47;11.67;;;7.80;99.90;;;;;;4982883;28;20444;-82
2022/02/03 13:38:38;;;;;;;12.40;8.40;;;7.80;99.90;;;;;;4958257;28;20501;-82
2022/02/03 13:41:23;;;;;;;16.00;10.73;;;7.80;99.90;;;;;;4959379;28;20798;-83
2022/02/03 13:44:11;;;;;;;12.47;10.03;;;7.80;99.90;;;;;;4960637;28;20494;-82
2022/02/03 13:46:56;;;;;;;15.90;10.90;;;7.90;99.90;;;;;;4957933;28;20450;-82
2022/02/03 13:49:43;;;;;;;15.27;9.17;;;8.00;99.90;;;;;;4958779;28;20415;-83
2022/02/03 13:52:34;;;;;;;17.40;11.37;;;8.00;99.90;;;;;;4963240;28;20433;-82
2022/02/03 14:12:13;;;;;;;13.93;10.60;;;8.00;99.90;;;;;;5016186;28;20518;-82
2022/02/03 14:14:28;;;;;;;12.17;7.90;;;8.10;99.90;;;;;;5015682;28;20475;-83
2022/02/03 14:17:52;;;;;;;12.67;8.50;;;8.10;99.90;;;;;;5022797;28;20419;-82
2022/02/03 14:20:34;;;;;;;14.00;7.63;;;8.10;99.90;;;;;;5047455;28;20448;-83
2022/02/03 14:23:25;;;;;;;11.37;8.23;;;8.10;99.90;;;;;;5031280;28;20525;-83
2022/02/03 14:29:11;;;;;;;10.20;8.00;;;8.20;99.90;;;;;;5009959;28;20395;-82
2022/02/03 14:32:02;;;;;;;10.00;8.10;;;8.20;99.90;;;;;;5021222;28;20930;-81
2022/02/03 14:34:49;;;;;;;12.40;8.33;;;8.10;99.90;;;;;;5027736;28;20431;-83
2022/02/03 14:37:45;;;;;;;10.47;6.60;;;8.10;99.90;;;;;;4989852;28;20390;-82
2022/02/03 14:40:37;;;;;;;11.73;7.20;;;8.10;99.90;;;;;;5020911;28;20435;-83
2022/02/03 14:43:22;;;;;;;11.77;7.00;;;8.10;99.90;;;;;;5018244;28;20423;-82
2022/02/03 14:46:11;;;;;;;8.47;6.97;;;8.10;99.90;;;;;;5020642;28;20908;-82
2022/02/03 14:48:56;;;;;;;7.47;5.73;;;8.20;99.90;;;;;;5017645;28;20439;-82
2022/02/03 14:51:49;;;;;;;6.87;5.27;;;8.20;99.90;;;;;;5022207;28;20438;-82
2022/02/03 15:00:28;;;;;;;12.80;5.30;;;8.10;99.90;;;;;;5014849;28;20590;-82
2022/02/03 15:03:13;;;;;;;8.23;6.37;;;8.10;99.90;;;;;;5000280;28;20480;-83
2022/02/03 15:06:06;;;;;;;8.60;6.47;;;8.10;99.90;;;;;;4998196;28;20456;-82
2022/02/03 15:09:14;;;;;;;6.87;5.13;;;8.20;99.90;;;;;;4993033;28;20767;-82
2022/02/03 15:12:01;;;;;;;9.47;4.73;;;8.30;99.90;;;;;;4987406;28;20435;-82
2022/02/03 15:14:45;;;;;;;5.40;4.70;;;8.20;99.90;;;;;;5001431;28;20444;-82
2022/02/03 15:17:35;;;;;;;6.00;4.37;;;8.30;99.90;;;;;;4975435;28;20409;-82
2022/02/03 15:20:19;;;;;;;5.17;4.27;;;8.20;99.90;;;;;;5008027;28;20527;-82
2022/02/03 15:23:06;;;;;;;5.80;4.87;;;8.20;99.90;;;;;;5003278;28;20480;-82
2022/02/03 15:25:51;;;;;;;7.20;5.30;;;8.20;99.90;;;;;;4981247;28;20432;-83
2022/02/03 15:28:36;;;;;;;6.07;4.60;;;8.10;99.90;;;;;;4999953;28;20409;-80
2022/02/03 15:31:26;;;;;;;5.23;3.90;;;8.20;99.90;;;;;;5007699;28;20419;-79
2022/02/03 15:34:19;;;;;;;5.83;4.90;;;8.20;99.90;;;;;;5000984;28;20459;-80
2022/02/03 15:37:11;;;;;;;5.00;4.57;;;8.20;99.90;;;;;;4997912;28;20463;-82
2022/02/03 15:40:03;;;;;;;5.40;3.90;;;8.10;99.90;;;;;;4983729;28;20925;-80
2022/02/03 15:42:59;;;;;;;4.40;3.57;;;8.20;99.90;;;;;;4973048;28;20508;-82
2022/02/03 15:45:48;;;;;;;3.70;3.40;;;8.20;99.90;;;;;;4980307;28;20411;-80
2022/02/03 15:48:40;;;;;;;3.43;3.13;;;8.30;99.90;;;;;;4994220;28;20472;-81
2022/02/03 15:58:04;;;;;;;3.57;3.27;;;8.40;99.90;;;;;;4999034;28;20955;-81
2022/02/03 16:00:57;;;;;;;4.10;3.70;;;8.30;99.90;;;;;;5008873;28;20880;-82
2022/02/03 16:03:44;;;;;;;3.80;3.50;;;8.30;99.90;;;;;;5016573;28;20469;-83
2022/02/03 16:13:19;;;;;;;10.80;4.73;;;8.30;99.90;;;;;;5003247;28;20419;-82
2022/02/03 16:18:31;;;;;;;5.80;4.60;;;8.40;99.90;;;;;;5024926;28;20477;-82
2022/02/03 16:21:23;;;;;;;9.40;5.63;;;8.40;99.90;;;;;;5019847;28;20871;-82
2022/02/03 16:24:20;;;;;;;5.03;4.50;;;8.30;99.90;;;;;;5021435;28;20389;-82
2022/02/03 16:40:46;;;;;;;4.80;3.97;;;8.10;99.90;;;;;;4974404;28;20460;-82
2022/02/03 16:54:12;;;;;;;5.43;4.90;;;8.20;99.90;;;;;;5007829;28;20411;-82
2022/02/03 16:57:02;;;;;;;6.00;5.40;;;8.10;99.90;;;;;;5011697;28;20833;-83
2022/02/03 16:59:57;;;;;;;6.73;6.07;;;8.10;99.90;;;;;;5000220;28;20906;-82
2022/02/03 17:02:41;;;;;;;4.77;3.90;;;8.10;99.90;;;;;;5023770;28;20482;-81
2022/02/03 17:05:27;;;;;;;7.23;5.40;;;8.00;99.90;;;;;;5003966;28;20443;-81
2022/02/03 17:08:11;;;;;;;5.53;5.03;;;8.00;99.90;;;;;;5016270;28;20431;-82
2022/02/03 17:10:56;;;;;;;7.67;6.03;;;8.00;99.90;;;;;;5020813;28;20408;-82
2022/02/03 17:13:40;;;;;;;5.30;4.03;;;8.00;99.90;;;;;;5015171;28;20795;-79
2022/02/03 17:16:25;;;;;;;8.33;5.50;;;8.00;99.90;;;;;;4995815;28;20382;-80
2022/02/03 17:19:10;;;;;;;7.63;6.20;;;8.00;99.90;;;;;;4962114;28;21025;-81
2022/02/03 17:21:54;;;;;;;6.23;5.53;;;8.00;99.90;;;;;;4963366;28;20445;-81
2022/02/03 17:24:45;;;;;;;7.90;5.47;;;8.10;99.90;;;;;;4978987;28;20426;-82
2022/02/03 17:27:38;;;;;;;5.23;4.73;;;8.00;99.90;;;;;;4973082;28;20445;-82
2022/02/03 17:30:31;;;;;;;6.00;4.60;;;7.90;99.90;;;;;;4975256;28;20431;-83
2022/02/03 18:30:43;;;;;;;5.77;4.80;;;7.90;99.90;;;;;;5014859;28;20475;-82
2022/02/03 18:36:44;;;;;;;8.57;7.50;;;7.90;99.90;;;;;;5025113;28;20399;-82
2022/02/03 18:46:17;;;;;;;5.57;4.97;;;7.80;99.90;;;;;;5025776;28;20366;-82
2022/02/03 18:52:11;;;;;;;6.53;5.43;;;7.80;99.90;;;;;;4985190;28;20552;-83
2022/02/03 18:55:10;;;;;;;6.70;5.53;;;7.90;99.90;;;;;;4986060;28;20405;-82
2022/02/03 18:58:10;;;;;;;9.73;6.87;;;7.90;99.90;;;;;;4984296;28;20447;-82
2022/02/03 19:01:14;;;;;;;9.77;6.60;;;7.80;99.90;;;;;;4987484;28;20490;-80
2022/02/03 19:10:29;;;;;;;10.53;5.87;;;7.90;99.90;;;;;;4985106;28;20413;-80
2022/02/03 19:14:16;;;;;;;11.97;6.90;;;7.90;99.90;;;;;;4987446;28;20401;-80
2022/02/03 19:25:46;;;;;;;13.83;7.03;;;7.90;99.90;;;;;;5019599;28;20399;-80
2022/02/03 19:28:31;;;;;;;6.87;6.00;;;8.00;99.90;;;;;;5032741;28;20400;-80
2022/02/03 19:56:40;;;;;;;9.77;7.23;;;7.90;99.90;;;;;;5031881;28;20403;-79
2022/02/03 20:04:38;;;;;;;7.73;6.93;;;8.20;99.90;;;;;;5030809;28;20790;-79
2022/02/03 20:07:33;;;;;;;9.50;6.80;;;8.20;99.90;;;;;;5030560;28;20406;-79
2022/02/03 20:10:24;;;;;;;7.17;6.47;;;8.10;99.90;;;;;;5030690;28;20834;-79
2022/02/03 20:13:09;;;;;;;7.60;6.20;;;8.10;99.90;;;;;;5030719;28;20395;-79
2022/02/03 20:15:55;;;;;;;7.83;7.03;;;8.10;99.90;;;;;;5031436;28;20458;-79
2022/02/03 20:18:39;;;;;;;7.63;6.80;;;8.00;99.90;;;;;;5030487;28;20422;-79
2022/02/03 20:21:29;;;;;;;7.87;6.67;;;7.90;99.90;;;;;;5030582;28;20370;-79
2022/02/03 20:24:13;;;;;;;7.93;6.23;;;7.90;99.90;;;;;;5032724;28;20412;-80
2022/02/03 20:26:58;;;;;;;8.53;6.87;;;7.90;99.90;;;;;;5036253;28;20422;-80
2022/02/03 20:29:43;;;;;;;8.37;7.20;;;8.00;99.90;;;;;;5036216;28;20366;-80
2022/02/03 20:32:29;;;;;;;9.53;8.53;;;7.90;99.90;;;;;;5036958;28;20363;-80
2022/02/03 20:35:14;;;;;;;8.50;6.87;;;7.80;99.90;;;;;;5036957;28;20444;-80
2022/02/03 20:37:59;;;;;;;8.20;7.30;;;7.90;99.90;;;;;;5033893;28;20451;-80
2022/02/03 20:40:45;;;;;;;10.27;6.23;;;7.90;99.90;;;;;;5015835;28;20376;-80
2022/02/03 20:43:29;;;;;;;10.27;7.10;;;7.90;99.90;;;;;;5030335;28;20746;-81
2022/02/03 20:46:14;;;;;;;9.97;7.97;;;8.00;99.90;;;;;;5030129;28;20380;-80
2022/02/03 20:48:58;;;;;;;8.40;6.90;;;7.90;99.90;;;;;;5030975;28;20383;-80
2022/02/03 20:51:43;;;;;;;7.83;6.90;;;7.90;99.90;;;;;;5030752;28;20391;-80
2022/02/03 20:54:28;;;;;;;9.73;7.77;;;8.00;99.90;;;;;;5030192;28;20406;-80
2022/02/03 20:57:14;;;;;;;10.07;9.07;;;7.90;99.90;;;;;;5030641;28;20387;-80
2022/02/03 21:03:03;;;;;;;11.37;8.10;;;7.80;99.90;;;;;;5030261;28;20495;-80
2022/02/03 21:05:48;;;;;;;10.13;7.90;;;7.80;99.90;;;;;;5031004;28;20469;-80
2022/02/03 21:08:35;;;;;;;9.20;7.47;;;7.90;99.90;;;;;;5030765;28;20467;-80
2022/02/03 21:11:19;;;;;;;9.23;7.50;;;7.90;99.90;;;;;;5031236;28;20392;-80
2022/02/03 21:14:04;;;;;;;9.20;8.13;;;7.90;99.90;;;;;;5030869;28;20367;-80
2022/02/03 21:16:52;;;;;;;8.67;7.27;;;7.80;99.90;;;;;;5031645;28;20447;-80
2022/02/03 21:19:36;;;;;;;8.03;7.23;;;7.80;99.90;;;;;;5031334;28;20493;-80
2022/02/03 21:22:21;;;;;;;6.53;5.93;;;7.80;99.90;;;;;;5031118;28;20431;-80
2022/02/03 21:25:17;;;;;;;7.20;6.30;;;7.80;99.90;;;;;;5030994;28;20394;-80
2022/02/03 21:28:10;;;;;;;8.73;6.43;;;7.80;99.90;;;;;;5030615;28;20379;-81
2022/02/03 21:30:55;;;;;;;7.70;7.00;;;7.90;99.90;;;;;;5031217;28;20388;-81
2022/02/03 21:33:46;;;;;;;9.37;6.93;;;7.90;99.90;;;;;;5032295;28;20497;-79
2022/02/03 21:36:55;;;;;;;10.03;6.40;;;7.80;99.90;;;;;;5035555;28;20403;-78
2022/02/03 21:39:40;;;;;;;13.93;8.17;;;7.80;99.90;;;;;;4992034;28;20524;-80
2022/02/03 21:42:24;;;;;;;7.47;5.50;;;8.00;99.90;;;;;;5014734;28;20380;-78
2022/02/03 21:45:10;;;;;;;10.07;6.37;;;8.00;99.90;;;;;;4998123;28;20388;-79
2022/02/03 21:47:55;;;;;;;12.50;6.27;;;8.00;99.90;;;;;;5011732;28;20412;-79
2022/02/03 21:50:41;;;;;;;7.93;6.43;;;8.10;99.90;;;;;;5013225;28;20397;-78
2022/02/03 21:53:30;;;;;;;7.80;6.40;;;8.10;99.90;;;;;;5011272;28;20412;-79
2022/02/03 21:56:16;;;;;;;5.93;5.33;;;8.20;99.90;;;;;;5014313;28;20161;-79
2022/02/03 21:59:07;;;;;;;5.90;5.30;;;8.20;99.90;;;;;;5013194;28;20467;-79
2022/02/03 22:01:51;;;;;;;6.50;5.20;;;8.20;99.90;;;;;;5013933;28;20444;-79
2022/02/03 22:04:35;;;;;;;6.63;5.00;;;8.20;99.90;;;;;;5013652;28;20433;-77
2022/02/03 22:07:20;;;;;;;6.10;5.60;;;8.20;99.90;;;;;;5013905;28;20412;-78
2022/02/03 22:10:05;;;;;;;7.50;5.60;;;8.20;99.90;;;;;;5021968;28;20435;-79
2022/02/03 22:12:50;;;;;;;6.90;5.30;;;8.20;99.90;;;;;;5030282;28;20366;-79
2022/02/03 22:15:35;;;;;;;8.93;6.00;;;8.20;99.90;;;;;;5028875;28;20487;-79
2022/02/03 22:18:19;;;;;;;7.83;5.87;;;8.20;99.90;;;;;;5030040;28;20408;-79
2022/02/03 22:21:13;;;;;;;5.60;4.53;;;8.10;99.90;;;;;;5029652;28;20431;-79
2022/02/03 22:24:09;;;;;;;11.97;6.20;;;8.10;99.90;;;;;;5029946;28;20404;-80
2022/02/03 22:39:14;;;;;;;5.10;4.60;;;8.10;99.90;;;;;;5029332;28;20438;-79
2022/02/03 22:42:26;;;;;;;5.43;4.93;;;8.10;99.90;;;;;;5033664;28;20415;-80
2022/02/03 22:45:13;;;;;;;8.60;5.77;;;8.10;99.90;;;;;;5033657;28;20378;-80
2022/02/03 22:48:13;;;;;;;7.40;5.73;;;8.00;99.90;;;;;;5033244;28;20400;-79
2022/02/03 22:51:00;;;;;;;12.70;5.67;;;8.00;99.90;;;;;;5033162;28;20461;-79
2022/02/03 22:53:46;;;;;;;9.10;5.50;;;7.90;99.90;;;;;;5032855;28;20405;-79
2022/02/03 22:56:31;;;;;;;5.13;4.53;;;7.90;99.90;;;;;;5032013;28;20406;-79